createdAt,value
2022-10-18T18:27:12.149Z,11.25
2022-10-18T18:30:18.063Z,11.60
2022-10-18T18:33:21.804Z,11.72
2022-10-18T18:36:28.814Z,11.78
2022-10-18T18:39:35.706Z,11.85
2022-10-18T18:42:40.671Z,11.91
2022-10-18T18:45:51.498Z,11.97
2022-10-18T18:48:55.474Z,12.03
2022-10-18T18:51:59.046Z,12.06
2022-10-18T18:55:02.649Z,12.09
2022-10-18T18:58:07.606Z,12.17
2022-10-18T19:01:13.072Z,12.23
2022-10-18T19:04:17.064Z,12.27
2022-10-18T19:07:20.875Z,12.29
2022-10-18T19:10:24.511Z,12.28
2022-10-18T19:13:29.774Z,12.30
2022-10-18T19:16:35.138Z,12.32
2022-10-18T19:19:40.847Z,12.33
2022-10-18T19:22:45.271Z,12.37
2022-10-18T19:25:48.873Z,12.44
2022-10-18T19:28:54.161Z,12.49
2022-10-18T19:32:00.469Z,12.48
2022-10-18T19:35:04.378Z,12.46
2022-10-18T19:38:08.163Z,12.43
2022-10-18T19:41:12.017Z,12.43
2022-10-18T19:44:17.641Z,12.36
2022-10-18T19:47:21.815Z,12.54
2022-10-18T19:53:30.241Z,12.65
2022-10-18T19:56:34.464Z,12.64
2022-10-18T20:02:48.269Z,12.53
2022-10-18T20:05:56.509Z,12.62
2022-10-18T20:09:00.582Z,12.59
2022-10-18T20:12:04.451Z,12.69
2022-10-18T20:15:11.013Z,12.60
2022-10-18T20:18:14.750Z,12.65
2022-10-18T20:21:18.646Z,12.65
2022-10-18T20:24:22.230Z,12.67
2022-10-18T20:27:26.052Z,12.67
2022-10-18T20:30:31.223Z,12.68
2022-10-18T20:33:35.938Z,12.65
2022-10-18T20:36:40.409Z,12.61
2022-10-18T20:39:44.255Z,12.64
2022-10-18T20:42:47.873Z,12.63
